Main page
METAR-TAF:

METAR-TAF

Airports :

Djibouti–Ambouli International Airport

Djibouti, Djibouti

latitude: 11-33N, longitude: 043-10E, elevation: 49 m

Current weather observation

The report was made 2 hours and 18 minutes ago, at 14:00 UTC
Wind 13 kt from the East/Northeast
Temperature 35°C
Humidity 53%
Pressure 1004 hPa
Visibility 10 km or more
Few clouds at a height of 2300 ft

METAR: HDAM 281400Z 07013KT 9999 FEW023 35/24 Q1004

Time: 19:18 (16:18 UTC)

Forecast

The report was made 5 hours and 18 minutes ago, at 11:00 UTC
Forecast valid from 28 at 12 UTC to 29 at 12 UTC
Wind 10 kt from the East
Visibility 10 km or more
Few clouds at a height of 2300 ft
Becoming
from 28 at 15 UTC to 28 at 21 UTC
Wind 3 kt from variable directions
Becoming
from 29 at 00 UTC to 29 at 06 UTC
Wind kt from the North

TAF: HDAM 281100Z 2812/2912 10010KT 9999 FEW023 BECMG 2815/2821 VRB03KT BECMG 2900/2906 00000KT

Weather observations and forecasts of more than 4000 airports (METAR and TAF reports).

The available stations are represented by yellow and red dots on the map.

Hover mouse over dot to see the name of the station.

Then click to see weather observations and forecasts.

To change the map : click on the green buttons with a black cross to zoom in, on the green button with a dash to zoom out, or on the green arrows for adjacent maps.


METAR-TAF: